Terminal Aerodrome Forecast
Issued by NWS

Home | Current Version | Previous Version | Graphics & Text | Print | Product List | Glossary On
Versions: 1 2 3 4 5 6 7 8 9 10 11 12 13 14 15
000
FTUS43 KBIS 291132
TAFJMS
TAF
KJMS 291132Z 2912/3012 19005KT 6SM BR SCT250
      TEMPO 2912/2914 3SM BR
     FM291600 20009KT P6SM SCT250
     FM300300 17010KT P6SM SCT250=

USA.gov is the U.S. government's official web portal to all federal, state and local government web resources and services.